NCAR-RAP Real-Time Weather Data

Output produced by METARs form (06 May 2021  14:55 UTC)
found at http://weather.rap.ucar.edu/surface/
 
KCUT 061353Z AUTO 19003KT 10SM CLR 06/M01 A3032 RMK AO2 SLP262 T00561011
KCUT 061253Z AUTO 00000KT 10SM CLR 02/M02 A3031 RMK AO2 SLP265 T00171022
KCUT 061153Z AUTO 29004KT 10SM CLR 01/M03 A3031 RMK AO2 SLP262 70003 T00061033 10017 21017 53000
KCUT 061053Z AUTO 31004KT 10SM CLR 01/M03 A3030 RMK AO2 SLP261 T00111028
KCUT 060953Z AUTO 30005KT 10SM CLR 00/M03 A3030 RMK AO2 SLP274 T00001028
KCUT 060853Z AUTO 32003KT 10SM FEW080 01/M03 A3030 RMK AO2 SLP262 T00061033 50004
KCUT 060753Z AUTO 26003KT 10SM CLR 00/M04 A3031 RMK AO2 SLP263 T00001039
KCUT 060653Z AUTO 29004KT 10SM CLR M01/M04 A3031 RMK AO2 SLP263 T10061039 401111017
KCUT 060553Z AUTO 20004KT 10SM CLR M01/M03 A3029 RMK AO2 SLP260 T10111028 10089 21017 51009
KCUT 060453Z AUTO 00000KT 10SM CLR 00/M02 A3029 RMK AO2 SLP256 T00001022
KCUT 060353Z AUTO 00000KT 10SM CLR 00/M03 A3028 RMK AO2 SLP254 T00001028
KCUT 060253Z AUTO 00000KT 10SM FEW100 02/M02 A3026 RMK AO2 SLP245 T00171017 53012
KCUT 060153Z AUTO VRB04KT 10SM BKN110 06/M02 A3024 RMK AO2 SLP230 T00561017